sensor_id;sensor_type;location;lat;lon;timestamp;pressure;altitude;pressure_sealevel;temperature;humidity
32933;BME280;19444;50.518;10.870;2022-08-21T00:01:26;96641.63;;;14.11;100.00
32933;BME280;19444;50.518;10.870;2022-08-21T00:04:24;96641.25;;;14.21;100.00
32933;BME280;19444;50.518;10.870;2022-08-21T00:07:25;96634.06;;;14.26;100.00
32933;BME280;19444;50.518;10.870;2022-08-21T00:10:24;96634.75;;;14.22;100.00
32933;BME280;19444;50.518;10.870;2022-08-21T00:13:21;96641.75;;;14.15;100.00
32933;BME280;19444;50.518;10.870;2022-08-21T00:16:18;96626.53;;;14.19;100.00
32933;BME280;19444;50.518;10.870;2022-08-21T00:19:15;96625.47;;;14.11;100.00
32933;BME280;19444;50.518;10.870;2022-08-21T00:22:12;96631.56;;;14.00;100.00
32933;BME280;19444;50.518;10.870;2022-08-21T00:25:10;96634.97;;;13.79;100.00
32933;BME280;19444;50.518;10.870;2022-08-21T00:28:07;96635.72;;;13.88;100.00
32933;BME280;19444;50.518;10.870;2022-08-21T00:31:04;96628.63;;;14.13;100.00
32933;BME280;19444;50.518;10.870;2022-08-21T00:34:02;96629.56;;;13.88;100.00
32933;BME280;19444;50.518;10.870;2022-08-21T00:36:59;96630.03;;;13.90;100.00
32933;BME280;19444;50.518;10.870;2022-08-21T00:39:56;96639.53;;;13.87;100.00
32933;BME280;19444;50.518;10.870;2022-08-21T00:42:53;96629.88;;;13.86;100.00
32933;BME280;19444;50.518;10.870;2022-08-21T00:45:51;96622.69;;;13.70;100.00
32933;BME280;19444;50.518;10.870;2022-08-21T00:48:49;96617.47;;;13.64;100.00
32933;BME280;19444;50.518;10.870;2022-08-21T00:51:55;96617.28;;;13.70;100.00
32933;BME280;19444;50.518;10.870;2022-08-21T00:54:55;96616.47;;;13.78;100.00
32933;BME280;19444;50.518;10.870;2022-08-21T00:57:57;96623.81;;;13.60;100.00
32933;BME280;19444;50.518;10.870;2022-08-21T01:00:55;96624.13;;;13.67;100.00
32933;BME280;19444;50.518;10.870;2022-08-21T01:03:51;96619.03;;;13.74;100.00
32933;BME280;19444;50.518;10.870;2022-08-21T01:06:49;96623.66;;;13.65;100.00
32933;BME280;19444;50.518;10.870;2022-08-21T01:09:47;96622.50;;;13.75;100.00
32933;BME280;19444;50.518;10.870;2022-08-21T01:12:44;96622.53;;;13.66;100.00
32933;BME280;19444;50.518;10.870;2022-08-21T01:15:46;96621.56;;;13.71;100.00
32933;BME280;19444;50.518;10.870;2022-08-21T01:18:45;96624.84;;;13.47;100.00
32933;BME280;19444;50.518;10.870;2022-08-21T01:21:43;96620.31;;;13.68;100.00
32933;BME280;19444;50.518;10.870;2022-08-21T01:24:40;96611.94;;;13.61;100.00
32933;BME280;19444;50.518;10.870;2022-08-21T01:27:37;96611.78;;;13.66;100.00
32933;BME280;19444;50.518;10.870;2022-08-21T01:30:35;96608.81;;;13.50;100.00
32933;BME280;19444;50.518;10.870;2022-08-21T01:33:34;96609.94;;;13.49;100.00
32933;BME280;19444;50.518;10.870;2022-08-21T01:36:31;96610.00;;;13.32;100.00
32933;BME280;19444;50.518;10.870;2022-08-21T01:39:29;96609.06;;;13.28;100.00
32933;BME280;19444;50.518;10.870;2022-08-21T01:42:26;96610.66;;;13.29;100.00
32933;BME280;19444;50.518;10.870;2022-08-21T01:45:23;96615.97;;;13.46;100.00
32933;BME280;19444;50.518;10.870;2022-08-21T01:48:20;96618.97;;;13.53;100.00
32933;BME280;19444;50.518;10.870;2022-08-21T01:51:17;96620.19;;;13.64;100.00
32933;BME280;19444;50.518;10.870;2022-08-21T01:54:14;96612.19;;;13.77;100.00
32933;BME280;19444;50.518;10.870;2022-08-21T01:57:12;96621.00;;;13.56;100.00
32933;BME280;19444;50.518;10.870;2022-08-21T02:00:12;96618.19;;;13.82;100.00
32933;BME280;19444;50.518;10.870;2022-08-21T02:03:09;96623.78;;;13.69;100.00
32933;BME280;19444;50.518;10.870;2022-08-21T02:06:11;96622.56;;;13.57;100.00
32933;BME280;19444;50.518;10.870;2022-08-21T02:09:10;96616.41;;;13.57;100.00
32933;BME280;19444;50.518;10.870;2022-08-21T02:12:09;96619.94;;;13.40;100.00
32933;BME280;19444;50.518;10.870;2022-08-21T02:15:07;96618.75;;;13.20;100.00
32933;BME280;19444;50.518;10.870;2022-08-21T02:18:06;96613.03;;;13.30;100.00
32933;BME280;19444;50.518;10.870;2022-08-21T02:21:04;96610.56;;;13.55;100.00
32933;BME280;19444;50.518;10.870;2022-08-21T02:24:02;96605.50;;;13.53;100.00
32933;BME280;19444;50.518;10.870;2022-08-21T02:26:59;96608.53;;;13.43;100.00
32933;BME280;19444;50.518;10.870;2022-08-21T02:29:57;96609.31;;;13.44;100.00
32933;BME280;19444;50.518;10.870;2022-08-21T02:32:54;96603.03;;;13.31;100.00
32933;BME280;19444;50.518;10.870;2022-08-21T02:35:52;96603.19;;;13.34;100.00
32933;BME280;19444;50.518;10.870;2022-08-21T02:38:49;96602.56;;;13.37;100.00
32933;BME280;19444;50.518;10.870;2022-08-21T02:41:46;96605.75;;;13.60;100.00
32933;BME280;19444;50.518;10.870;2022-08-21T02:44:43;96598.25;;;13.45;100.00
32933;BME280;19444;50.518;10.870;2022-08-21T02:47:50;96600.31;;;13.40;100.00
32933;BME280;19444;50.518;10.870;2022-08-21T02:50:55;96591.22;;;13.53;100.00
32933;BME280;19444;50.518;10.870;2022-08-21T02:53:52;96592.56;;;13.38;100.00
32933;BME280;19444;50.518;10.870;2022-08-21T02:56:49;96589.34;;;13.53;100.00
32933;BME280;19444;50.518;10.870;2022-08-21T02:59:46;96572.72;;;13.81;100.00
32933;BME280;19444;50.518;10.870;2022-08-21T03:02:43;96590.69;;;13.68;100.00
32933;BME280;19444;50.518;10.870;2022-08-21T03:05:43;96583.31;;;13.56;100.00
32933;BME280;19444;50.518;10.870;2022-08-21T03:08:41;96596.53;;;13.70;100.00
32933;BME280;19444;50.518;10.870;2022-08-21T03:11:38;96585.91;;;13.44;100.00
32933;BME280;19444;50.518;10.870;2022-08-21T03:14:35;96586.75;;;13.65;100.00
32933;BME280;19444;50.518;10.870;2022-08-21T03:17:32;96587.41;;;13.62;100.00
32933;BME280;19444;50.518;10.870;2022-08-21T03:20:30;96592.50;;;13.55;100.00
32933;BME280;19444;50.518;10.870;2022-08-21T03:23:28;96583.31;;;13.56;100.00
32933;BME280;19444;50.518;10.870;2022-08-21T03:26:28;96589.84;;;13.47;100.00
32933;BME280;19444;50.518;10.870;2022-08-21T03:29:27;96598.13;;;13.33;100.00
32933;BME280;19444;50.518;10.870;2022-08-21T03:32:24;96587.78;;;13.44;100.00
32933;BME280;19444;50.518;10.870;2022-08-21T03:35:21;96588.91;;;13.43;100.00
32933;BME280;19444;50.518;10.870;2022-08-21T03:38:18;96587.66;;;13.40;100.00
32933;BME280;19444;50.518;10.870;2022-08-21T03:41:22;96589.88;;;13.38;100.00
32933;BME280;19444;50.518;10.870;2022-08-21T03:44:19;96591.94;;;13.32;100.00
32933;BME280;19444;50.518;10.870;2022-08-21T03:47:15;96595.00;;;13.14;100.00
32933;BME280;19444;50.518;10.870;2022-08-21T03:50:12;96594.03;;;13.27;100.00
32933;BME280;19444;50.518;10.870;2022-08-21T03:53:11;96587.53;;;13.28;100.00
32933;BME280;19444;50.518;10.870;2022-08-21T03:56:13;96601.94;;;13.32;100.00
32933;BME280;19444;50.518;10.870;2022-08-21T03:59:11;96593.72;;;13.28;100.00
32933;BME280;19444;50.518;10.870;2022-08-21T04:02:09;96595.25;;;13.38;100.00
32933;BME280;19444;50.518;10.870;2022-08-21T04:05:07;96593.72;;;13.28;100.00
32933;BME280;19444;50.518;10.870;2022-08-21T04:08:06;96598.09;;;13.42;100.00
32933;BME280;19444;50.518;10.870;2022-08-21T04:11:04;96596.00;;;13.47;100.00
32933;BME280;19444;50.518;10.870;2022-08-21T04:14:02;96604.00;;;13.35;100.00
32933;BME280;19444;50.518;10.870;2022-08-21T04:16:59;96600.84;;;13.24;100.00
32933;BME280;19444;50.518;10.870;2022-08-21T04:19:56;96612.38;;;13.33;100.00
32933;BME280;19444;50.518;10.870;2022-08-21T04:22:53;96619.53;;;13.21;100.00
32933;BME280;19444;50.518;10.870;2022-08-21T04:25:52;96609.16;;;13.49;100.00
32933;BME280;19444;50.518;10.870;2022-08-21T04:28:50;96617.66;;;13.59;100.00
32933;BME280;19444;50.518;10.870;2022-08-21T04:31:46;96617.38;;;13.44;100.00
32933;BME280;19444;50.518;10.870;2022-08-21T04:34:43;96619.28;;;13.43;100.00
32933;BME280;19444;50.518;10.870;2022-08-21T04:37:40;96624.19;;;13.50;100.00
32933;BME280;19444;50.518;10.870;2022-08-21T04:40:38;96630.91;;;13.35;100.00
32933;BME280;19444;50.518;10.870;2022-08-21T04:43:35;96628.13;;;13.52;100.00
32933;BME280;19444;50.518;10.870;2022-08-21T04:46:32;96634.00;;;13.54;100.00
32933;BME280;19444;50.518;10.870;2022-08-21T04:49:28;96635.03;;;13.71;100.00
32933;BME280;19444;50.518;10.870;2022-08-21T04:52:25;96627.38;;;13.81;100.00
32933;BME280;19444;50.518;10.870;2022-08-21T04:55:23;96641.19;;;13.71;100.00
32933;BME280;19444;50.518;10.870;2022-08-21T04:58:22;96646.34;;;13.55;100.00
32933;BME280;19444;50.518;10.870;2022-08-21T05:01:24;96640.72;;;13.69;100.00
32933;BME280;19444;50.518;10.870;2022-08-21T05:04:26;96630.63;;;13.95;100.00
32933;BME280;19444;50.518;10.870;2022-08-21T05:07:27;96636.09;;;14.08;100.00
32933;BME280;19444;50.518;10.870;2022-08-21T05:10:38;96649.09;;;13.76;100.00
32933;BME280;19444;50.518;10.870;2022-08-21T05:13:36;96644.88;;;13.96;100.00
32933;BME280;19444;50.518;10.870;2022-08-21T05:16:32;96656.50;;;13.88;100.00
32933;BME280;19444;50.518;10.870;2022-08-21T05:19:33;96645.03;;;14.00;100.00
32933;BME280;19444;50.518;10.870;2022-08-21T05:22:30;96639.91;;;14.07;100.00
32933;BME280;19444;50.518;10.870;2022-08-21T05:25:27;96654.31;;;13.81;100.00
32933;BME280;19444;50.518;10.870;2022-08-21T05:28:25;96665.09;;;13.81;100.00
32933;BME280;19444;50.518;10.870;2022-08-21T05:31:23;96659.69;;;13.90;100.00
32933;BME280;19444;50.518;10.870;2022-08-21T05:34:22;96671.78;;;13.75;100.00
32933;BME280;19444;50.518;10.870;2022-08-21T05:37:19;96675.78;;;13.60;100.00
32933;BME280;19444;50.518;10.870;2022-08-21T05:40:16;96671.75;;;13.84;100.00
32933;BME280;19444;50.518;10.870;2022-08-21T05:43:18;96650.88;;;14.02;100.00
32933;BME280;19444;50.518;10.870;2022-08-21T05:46:16;96666.34;;;13.84;100.00
32933;BME280;19444;50.518;10.870;2022-08-21T05:49:13;96672.88;;;13.74;100.00
32933;BME280;19444;50.518;10.870;2022-08-21T05:52:10;96674.72;;;13.91;100.00
32933;BME280;19444;50.518;10.870;2022-08-21T05:55:07;96666.59;;;14.00;100.00
32933;BME280;19444;50.518;10.870;2022-08-21T05:58:04;96662.88;;;13.83;100.00
32933;BME280;19444;50.518;10.870;2022-08-21T06:01:02;96664.19;;;13.98;100.00
32933;BME280;19444;50.518;10.870;2022-08-21T06:04:00;96678.75;;;14.06;100.00
32933;BME280;19444;50.518;10.870;2022-08-21T06:06:58;96665.53;;;13.92;100.00
32933;BME280;19444;50.518;10.870;2022-08-21T06:09:55;96670.72;;;13.97;100.00
32933;BME280;19444;50.518;10.870;2022-08-21T06:12:55;96667.56;;;13.95;100.00
32933;BME280;19444;50.518;10.870;2022-08-21T06:16:09;96668.91;;;14.10;100.00
32933;BME280;19444;50.518;10.870;2022-08-21T06:19:12;96673.53;;;14.09;100.00
32933;BME280;19444;50.518;10.870;2022-08-21T06:22:09;96668.31;;;14.04;100.00
32933;BME280;19444;50.518;10.870;2022-08-21T06:25:07;96664.78;;;14.12;100.00
32933;BME280;19444;50.518;10.870;2022-08-21T06:28:09;96661.25;;;14.20;100.00
32933;BME280;19444;50.518;10.870;2022-08-21T06:31:18;96662.81;;;14.51;100.00
32933;BME280;19444;50.518;10.870;2022-08-21T06:34:16;96658.75;;;14.45;100.00
32933;BME280;19444;50.518;10.870;2022-08-21T06:37:13;96657.88;;;14.53;100.00
32933;BME280;19444;50.518;10.870;2022-08-21T06:40:10;96634.44;;;14.87;100.00
32933;BME280;19444;50.518;10.870;2022-08-21T06:43:13;96647.47;;;14.85;100.00
32933;BME280;19444;50.518;10.870;2022-08-21T06:46:10;96634.69;;;14.94;100.00
32933;BME280;19444;50.518;10.870;2022-08-21T06:49:07;96631.50;;;15.13;100.00
32933;BME280;19444;50.518;10.870;2022-08-21T06:52:13;96632.78;;;15.27;100.00
32933;BME280;19444;50.518;10.870;2022-08-21T06:55:10;96637.16;;;15.32;100.00
32933;BME280;19444;50.518;10.870;2022-08-21T06:58:16;96627.84;;;15.42;100.00
32933;BME280;19444;50.518;10.870;2022-08-21T07:01:13;96631.22;;;15.51;100.00
32933;BME280;19444;50.518;10.870;2022-08-21T07:04:11;96630.88;;;15.52;100.00
32933;BME280;19444;50.518;10.870;2022-08-21T07:07:07;96624.41;;;15.66;100.00
32933;BME280;19444;50.518;10.870;2022-08-21T07:10:05;96628.44;;;15.72;100.00
32933;BME280;19444;50.518;10.870;2022-08-21T07:13:02;96626.22;;;15.86;100.00
32933;BME280;19444;50.518;10.870;2022-08-21T07:15:59;96624.84;;;16.04;100.00
32933;BME280;19444;50.518;10.870;2022-08-21T07:19:00;96606.13;;;16.24;100.00
32933;BME280;19444;50.518;10.870;2022-08-21T07:22:00;96617.25;;;16.34;100.00
32933;BME280;19444;50.518;10.870;2022-08-21T07:24:57;96612.72;;;16.50;100.00
32933;BME280;19444;50.518;10.870;2022-08-21T07:27:55;96602.44;;;16.56;100.00
32933;BME280;19444;50.518;10.870;2022-08-21T07:30:54;96611.09;;;16.74;100.00
32933;BME280;19444;50.518;10.870;2022-08-21T07:33:52;96620.38;;;16.89;100.00
32933;BME280;19444;50.518;10.870;2022-08-21T07:36:49;96614.13;;;17.00;100.00
32933;BME280;19444;50.518;10.870;2022-08-21T07:39:45;96604.97;;;17.05;100.00
32933;BME280;19444;50.518;10.870;2022-08-21T07:42:47;96610.22;;;17.14;100.00
32933;BME280;19444;50.518;10.870;2022-08-21T07:45:46;96608.50;;;17.21;100.00
32933;BME280;19444;50.518;10.870;2022-08-21T07:48:43;96611.72;;;17.27;100.00
32933;BME280;19444;50.518;10.870;2022-08-21T07:51:40;96609.03;;;17.43;100.00
32933;BME280;19444;50.518;10.870;2022-08-21T07:54:38;96595.75;;;17.69;100.00
32933;BME280;19444;50.518;10.870;2022-08-21T07:57:35;96598.91;;;18.03;100.00
32933;BME280;19444;50.518;10.870;2022-08-21T08:00:32;96594.91;;;18.51;100.00
32933;BME280;19444;50.518;10.870;2022-08-21T08:03:29;96583.81;;;18.40;100.00
32933;BME280;19444;50.518;10.870;2022-08-21T08:06:26;96574.41;;;18.92;100.00
32933;BME280;19444;50.518;10.870;2022-08-21T08:09:23;96580.47;;;18.47;100.00
32933;BME280;19444;50.518;10.870;2022-08-21T08:12:20;96581.25;;;19.28;100.00
32933;BME280;19444;50.518;10.870;2022-08-21T08:15:23;96569.59;;;19.28;100.00
32933;BME280;19444;50.518;10.870;2022-08-21T08:18:20;96568.53;;;19.78;100.00
32933;BME280;19444;50.518;10.870;2022-08-21T08:21:17;96566.81;;;19.01;100.00
32933;BME280;19444;50.518;10.870;2022-08-21T08:24:17;96561.00;;;19.22;100.00
32933;BME280;19444;50.518;10.870;2022-08-21T08:27:15;96568.72;;;19.01;100.00
32933;BME280;19444;50.518;10.870;2022-08-21T08:30:16;96569.06;;;18.77;100.00
32933;BME280;19444;50.518;10.870;2022-08-21T08:33:14;96564.47;;;18.61;100.00
32933;BME280;19444;50.518;10.870;2022-08-21T08:36:16;96566.75;;;18.59;100.00
32933;BME280;19444;50.518;10.870;2022-08-21T08:39:15;96563.91;;;18.52;100.00
32933;BME280;19444;50.518;10.870;2022-08-21T08:42:29;96560.03;;;18.53;100.00
32933;BME280;19444;50.518;10.870;2022-08-21T08:45:32;96565.91;;;18.94;100.00
32933;BME280;19444;50.518;10.870;2022-08-21T08:48:56;96542.25;;;20.16;100.00
32933;BME280;19444;50.518;10.870;2022-08-21T08:52:19;96545.59;;;20.62;100.00
32933;BME280;19444;50.518;10.870;2022-08-21T08:55:26;96540.78;;;20.52;100.00
32933;BME280;19444;50.518;10.870;2022-08-21T08:58:32;96542.94;;;20.69;100.00
32933;BME280;19444;50.518;10.870;2022-08-21T09:01:29;96545.59;;;20.66;100.00
32933;BME280;19444;50.518;10.870;2022-08-21T09:04:31;96548.38;;;21.44;100.00
32933;BME280;19444;50.518;10.870;2022-08-21T09:07:51;96544.28;;;20.49;100.00
32933;BME280;19444;50.518;10.870;2022-08-21T09:11:07;96540.22;;;20.39;100.00
32933;BME280;19444;50.518;10.870;2022-08-21T09:18:19;96530.72;;;21.78;100.00
32933;BME280;19444;50.518;10.870;2022-08-21T09:21:32;96524.88;;;21.76;100.00
32933;BME280;19444;50.518;10.870;2022-08-21T09:27:50;96526.69;;;21.62;100.00
32933;BME280;19444;50.518;10.870;2022-08-21T09:30:48;96528.09;;;21.41;100.00
32933;BME280;19444;50.518;10.870;2022-08-21T09:33:47;96522.56;;;22.55;100.00
32933;BME280;19444;50.518;10.870;2022-08-21T09:36:48;96522.09;;;22.35;100.00
32933;BME280;19444;50.518;10.870;2022-08-21T09:39:45;96513.31;;;22.95;100.00
32933;BME280;19444;50.518;10.870;2022-08-21T09:42:56;96504.78;;;23.46;100.00
32933;BME280;19444;50.518;10.870;2022-08-21T09:46:11;96511.13;;;22.28;100.00
32933;BME280;19444;50.518;10.870;2022-08-21T09:49:09;96514.44;;;21.93;100.00
32933;BME280;19444;50.518;10.870;2022-08-21T09:52:21;96516.28;;;21.26;100.00
32933;BME280;19444;50.518;10.870;2022-08-21T09:55:48;96518.69;;;21.32;100.00
32933;BME280;19444;50.518;10.870;2022-08-21T09:59:17;96520.97;;;21.29;100.00
32933;BME280;19444;50.518;10.870;2022-08-21T10:02:29;96529.44;;;21.21;100.00
32933;BME280;19444;50.518;10.870;2022-08-21T10:05:27;96522.69;;;20.67;100.00
32933;BME280;19444;50.518;10.870;2022-08-21T10:08:28;96516.88;;;21.50;100.00
32933;BME280;19444;50.518;10.870;2022-08-21T10:11:27;96513.81;;;22.17;100.00
32933;BME280;19444;50.518;10.870;2022-08-21T10:15:20;96503.50;;;21.93;100.00
32933;BME280;19444;50.518;10.870;2022-08-21T10:18:26;96492.22;;;22.85;100.00
32933;BME280;19444;50.518;10.870;2022-08-21T10:28:15;96498.94;;;23.44;96.08
32933;BME280;19444;50.518;10.870;2022-08-21T10:34:59;96501.78;;;22.25;96.74
32933;BME280;19444;50.518;10.870;2022-08-21T10:39:21;96487.97;;;23.55;94.61
32933;BME280;19444;50.518;10.870;2022-08-21T10:42:52;96496.72;;;22.27;100.00
32933;BME280;19444;50.518;10.870;2022-08-21T10:46:09;96491.69;;;21.67;100.00
32933;BME280;19444;50.518;10.870;2022-08-21T10:49:28;96506.84;;;21.61;100.00
32933;BME280;19444;50.518;10.870;2022-08-21T10:53:27;96500.78;;;21.34;100.00
32933;BME280;19444;50.518;10.870;2022-08-21T10:56:33;96493.47;;;21.45;100.00
32933;BME280;19444;50.518;10.870;2022-08-21T10:59:41;96497.66;;;22.81;100.00
32933;BME280;19444;50.518;10.870;2022-08-21T11:03:01;96486.81;;;23.45;100.00
32933;BME280;19444;50.518;10.870;2022-08-21T11:06:28;96491.00;;;22.68;100.00
32933;BME280;19444;50.518;10.870;2022-08-21T11:09:27;96477.03;;;23.87;100.00
32933;BME280;19444;50.518;10.870;2022-08-21T11:12:41;96470.69;;;24.15;99.01
32933;BME280;19444;50.518;10.870;2022-08-21T11:15:57;96466.50;;;23.78;97.02
32933;BME280;19444;50.518;10.870;2022-08-21T11:22:31;96466.78;;;22.52;99.05
32933;BME280;19444;50.518;10.870;2022-08-21T11:25:44;96472.59;;;22.43;100.00
32933;BME280;19444;50.518;10.870;2022-08-21T11:29:00;96481.94;;;22.35;100.00
32933;BME280;19444;50.518;10.870;2022-08-21T11:32:08;96486.28;;;22.51;100.00
32933;BME280;19444;50.518;10.870;2022-08-21T11:35:45;96480.41;;;22.41;100.00
32933;BME280;19444;50.518;10.870;2022-08-21T11:39:06;96478.88;;;22.65;100.00
32933;BME280;19444;50.518;10.870;2022-08-21T11:46:08;96473.03;;;22.60;100.00
32933;BME280;19444;50.518;10.870;2022-08-21T11:53:05;96460.59;;;23.83;95.69
32933;BME280;19444;50.518;10.870;2022-08-21T11:56:43;96442.53;;;24.04;90.32
32933;BME280;19444;50.518;10.870;2022-08-21T12:00:13;96447.38;;;24.66;83.90
32933;BME280;19444;50.518;10.870;2022-08-21T12:03:29;96440.59;;;24.88;87.11
32933;BME280;19444;50.518;10.870;2022-08-21T12:06:38;96430.31;;;24.37;82.16
32933;BME280;19444;50.518;10.870;2022-08-21T12:09:37;96442.72;;;24.63;80.31
32933;BME280;19444;50.518;10.870;2022-08-21T12:12:37;96432.81;;;24.76;76.54
32933;BME280;19444;50.518;10.870;2022-08-21T12:15:34;96441.38;;;25.41;86.87
32933;BME280;19444;50.518;10.870;2022-08-21T12:18:31;96438.81;;;26.32;84.46
32933;BME280;19444;50.518;10.870;2022-08-21T12:21:28;96435.84;;;25.86;79.49
32933;BME280;19444;50.518;10.870;2022-08-21T12:24:50;96431.16;;;25.45;87.59
32933;BME280;19444;50.518;10.870;2022-08-21T12:27:53;96432.09;;;25.28;80.91
32933;BME280;19444;50.518;10.870;2022-08-21T12:30:58;96444.19;;;24.78;89.24
32933;BME280;19444;50.518;10.870;2022-08-21T12:33:59;96439.22;;;26.00;86.31
32933;BME280;19444;50.518;10.870;2022-08-21T12:37:07;96434.50;;;25.63;86.04
32933;BME280;19444;50.518;10.870;2022-08-21T12:40:27;96423.88;;;26.06;73.66
32933;BME280;19444;50.518;10.870;2022-08-21T12:43:43;96428.59;;;26.06;78.25
32933;BME280;19444;50.518;10.870;2022-08-21T12:47:13;96428.38;;;25.90;69.74
32933;BME280;19444;50.518;10.870;2022-08-21T12:50:40;96422.19;;;25.37;70.14
32933;BME280;19444;50.518;10.870;2022-08-21T12:53:55;96417.06;;;26.15;90.99
32933;BME280;19444;50.518;10.870;2022-08-21T12:57:00;96419.22;;;27.15;84.21
32933;BME280;19444;50.518;10.870;2022-08-21T13:00:05;96410.88;;;26.68;65.88
32933;BME280;19444;50.518;10.870;2022-08-21T13:03:06;96416.69;;;25.82;66.40
32933;BME280;19444;50.518;10.870;2022-08-21T13:06:05;96405.94;;;25.57;56.52
32933;BME280;19444;50.518;10.870;2022-08-21T13:09:09;96416.06;;;26.01;52.74
32933;BME280;19444;50.518;10.870;2022-08-21T13:12:08;96406.56;;;26.71;55.94
32933;BME280;19444;50.518;10.870;2022-08-21T13:15:06;96408.97;;;26.92;60.91
32933;BME280;19444;50.518;10.870;2022-08-21T13:18:06;96407.69;;;26.46;51.31
32933;BME280;19444;50.518;10.870;2022-08-21T13:21:12;96408.19;;;26.38;54.47
32933;BME280;19444;50.518;10.870;2022-08-21T13:24:24;96412.78;;;25.38;70.43
32933;BME280;19444;50.518;10.870;2022-08-21T13:27:38;96405.44;;;26.03;57.35
32933;BME280;19444;50.518;10.870;2022-08-21T13:30:49;96403.13;;;26.63;61.29
32933;BME280;19444;50.518;10.870;2022-08-21T13:33:48;96410.38;;;26.50;51.08
32933;BME280;19444;50.518;10.870;2022-08-21T13:36:46;96413.31;;;26.01;52.54
32933;BME280;19444;50.518;10.870;2022-08-21T13:39:52;96420.84;;;25.11;53.13
32933;BME280;19444;50.518;10.870;2022-08-21T13:42:49;96408.75;;;25.09;49.72
32933;BME280;19444;50.518;10.870;2022-08-21T13:45:53;96399.47;;;24.88;60.64
32933;BME280;19444;50.518;10.870;2022-08-21T13:48:50;96394.72;;;26.47;51.88
32933;BME280;19444;50.518;10.870;2022-08-21T13:51:48;96401.50;;;26.04;41.80
32933;BME280;19444;50.518;10.870;2022-08-21T13:55:08;96389.91;;;26.54;43.67
32933;BME280;19444;50.518;10.870;2022-08-21T13:58:09;96383.97;;;26.83;40.88
32933;BME280;19444;50.518;10.870;2022-08-21T14:04:56;96377.72;;;26.79;40.49
32933;BME280;19444;50.518;10.870;2022-08-21T14:08:10;96372.13;;;27.56;41.53
32933;BME280;19444;50.518;10.870;2022-08-21T14:11:12;96386.41;;;27.28;38.17
32933;BME280;19444;50.518;10.870;2022-08-21T14:14:30;96383.06;;;27.16;39.78
32933;BME280;19444;50.518;10.870;2022-08-21T14:17:34;96379.34;;;27.03;40.23
32933;BME280;19444;50.518;10.870;2022-08-21T14:20:35;96386.31;;;26.57;38.95
32933;BME280;19444;50.518;10.870;2022-08-21T14:23:32;96385.81;;;27.16;43.50
32933;BME280;19444;50.518;10.870;2022-08-21T14:26:29;96387.22;;;27.25;42.40
32933;BME280;19444;50.518;10.870;2022-08-21T14:29:31;96387.38;;;27.17;40.43
32933;BME280;19444;50.518;10.870;2022-08-21T14:32:38;96389.75;;;27.39;46.82
32933;BME280;19444;50.518;10.870;2022-08-21T14:35:41;96383.13;;;27.13;37.69
32933;BME280;19444;50.518;10.870;2022-08-21T14:38:40;96380.91;;;26.50;39.67
32933;BME280;19444;50.518;10.870;2022-08-21T14:41:37;96382.69;;;26.64;39.46
32933;BME280;19444;50.518;10.870;2022-08-21T14:44:34;96381.41;;;26.96;45.93
32933;BME280;19444;50.518;10.870;2022-08-21T14:47:31;96385.22;;;26.51;43.01
32933;BME280;19444;50.518;10.870;2022-08-21T14:50:28;96387.22;;;27.01;54.39
32933;BME280;19444;50.518;10.870;2022-08-21T14:53:25;96392.69;;;26.51;42.48
32933;BME280;19444;50.518;10.870;2022-08-21T14:56:22;96393.06;;;26.80;45.05
32933;BME280;19444;50.518;10.870;2022-08-21T14:59:20;96390.88;;;26.68;43.02
32933;BME280;19444;50.518;10.870;2022-08-21T15:02:17;96395.81;;;27.07;42.57
32933;BME280;19444;50.518;10.870;2022-08-21T15:05:14;96384.47;;;27.25;42.45
32933;BME280;19444;50.518;10.870;2022-08-21T15:08:20;96386.78;;;26.79;41.10
32933;BME280;19444;50.518;10.870;2022-08-21T15:11:20;96381.41;;;27.42;42.42
32933;BME280;19444;50.518;10.870;2022-08-21T15:14:40;96376.44;;;26.87;45.95
32933;BME280;19444;50.518;10.870;2022-08-21T15:17:37;96374.75;;;26.43;43.63
32933;BME280;19444;50.518;10.870;2022-08-21T15:20:36;96375.63;;;26.63;47.04
32933;BME280;19444;50.518;10.870;2022-08-21T15:23:33;96370.03;;;27.20;52.63
32933;BME280;19444;50.518;10.870;2022-08-21T15:26:30;96372.56;;;26.57;51.06
32933;BME280;19444;50.518;10.870;2022-08-21T15:29:29;96364.22;;;26.64;51.96
32933;BME280;19444;50.518;10.870;2022-08-21T15:32:29;96359.41;;;26.96;46.44
32933;BME280;19444;50.518;10.870;2022-08-21T15:35:27;96364.94;;;26.42;47.34
32933;BME280;19444;50.518;10.870;2022-08-21T15:38:24;96365.78;;;25.74;47.10
32933;BME280;19444;50.518;10.870;2022-08-21T15:41:21;96362.47;;;26.20;45.16
32933;BME280;19444;50.518;10.870;2022-08-21T15:44:18;96357.81;;;26.17;45.37
32933;BME280;19444;50.518;10.870;2022-08-21T15:47:25;96355.97;;;26.07;46.88
32933;BME280;19444;50.518;10.870;2022-08-21T15:50:25;96355.00;;;26.21;39.88
32933;BME280;19444;50.518;10.870;2022-08-21T15:53:22;96355.03;;;26.48;37.99
32933;BME280;19444;50.518;10.870;2022-08-21T15:56:36;96352.28;;;26.48;38.79
32933;BME280;19444;50.518;10.870;2022-08-21T16:00:00;96348.88;;;27.37;47.50
32933;BME280;19444;50.518;10.870;2022-08-21T16:03:06;96345.19;;;26.50;38.11
32933;BME280;19444;50.518;10.870;2022-08-21T16:06:07;96346.81;;;26.48;37.67
32933;BME280;19444;50.518;10.870;2022-08-21T16:09:03;96347.56;;;26.48;40.00
32933;BME280;19444;50.518;10.870;2022-08-21T16:12:01;96353.38;;;26.23;38.24
32933;BME280;19444;50.518;10.870;2022-08-21T16:15:00;96352.34;;;26.14;40.50
32933;BME280;19444;50.518;10.870;2022-08-21T16:17:58;96352.59;;;25.62;38.65